Grosse Pointe, Michigan
Current Conditions -  °F | °C
As of 12:53 PM on Friday 19 Dec 2014 (Local Time) from KDET Reporting Station
Scattered Clouds Scattered Clouds  
Wind Chill: 32°   Ceiling: Unl
Heat Index: 32°   Visibility: 10mi
Dew Point: 18°   Wind: 0mph
Humidity: 56%   Direction: NA
Pressure: 30.26"   Gusts: NA
Location:  42.39°N, 82.91°W
Report Text: KDET 191753Z 00000KT 10SM SCT026 00/M08 A3026 RMK AO2 SLP256 T00001078 10000 21017 58008
Loading
Personal Weather Stations






























Interactive Weather Map New forecast layout! Learn more

10-Day Weather Forecast

Advertisements
Track Severe Weather on mobile